Terminal Aerodrome Forecast
Issued by NWS Shreveport, LA

Home | Current Version | Previous Version | Text Only | Print | Product List | Glossary On
Versions: 1 2 3 4 5 6 7 8 9 10 11 12 13 14 15 16 17 18 19 20 21 22 23 24
000
FTUS44 KSHV 300814 AAA
TAFLFK
TAF AMD
KLFK 300814Z 3008/3106 14003KT 6SM BR OVC004
      TEMPO 3008/3012 3SM BR SCT005 BKN015
     FM301500 24005KT 6SM BR VCTS BKN007 OVC040CB
     FM301800 27007KT P6SM -TSRA FEW010 BKN050CB
     FM302100 30006KT P6SM SCT050=

USA.gov is the U.S. government's official web portal to all federal, state and local government web resources and services.